sensor_id;sensor_type;location;lat;lon;timestamp;pressure;altitude;pressure_sealevel;temperature
18713;BMP280;9485;49.386;8.674;2022-07-29T00:01:36;100116.97;;;26.56
18713;BMP280;9485;49.386;8.674;2022-07-29T00:06:58;100111.81;;;26.45
18713;BMP280;9485;49.386;8.674;2022-07-29T00:12:19;100103.91;;;26.36
18713;BMP280;9485;49.386;8.674;2022-07-29T00:17:40;100099.16;;;26.31
18713;BMP280;9485;49.386;8.674;2022-07-29T00:23:02;100092.66;;;26.21
18713;BMP280;9485;49.386;8.674;2022-07-29T00:28:22;100091.16;;;26.11
18713;BMP280;9485;49.386;8.674;2022-07-29T00:33:43;100075.81;;;25.99
18713;BMP280;9485;49.386;8.674;2022-07-29T00:39:05;100083.88;;;26.00
18713;BMP280;9485;49.386;8.674;2022-07-29T00:44:25;100085.25;;;25.99
18713;BMP280;9485;49.386;8.674;2022-07-29T00:49:46;100081.59;;;25.99
18713;BMP280;9485;49.386;8.674;2022-07-29T00:55:12;100081.59;;;25.99
18713;BMP280;9485;49.386;8.674;2022-07-29T01:00:34;100081.28;;;25.95
18713;BMP280;9485;49.386;8.674;2022-07-29T01:05:54;100091.34;;;25.94
18713;BMP280;9485;49.386;8.674;2022-07-29T01:11:17;100087.25;;;25.87
18713;BMP280;9485;49.386;8.674;2022-07-29T01:16:46;100077.19;;;25.79
18713;BMP280;9485;49.386;8.674;2022-07-29T01:22:25;100081.75;;;25.63
18713;BMP280;9485;49.386;8.674;2022-07-29T01:28:11;100073.84;;;25.54
18713;BMP280;9485;49.386;8.674;2022-07-29T01:33:41;100066.69;;;25.46
18713;BMP280;9485;49.386;8.674;2022-07-29T01:39:16;100066.22;;;25.40
18713;BMP280;9485;49.386;8.674;2022-07-29T01:44:45;100066.38;;;25.42
18713;BMP280;9485;49.386;8.674;2022-07-29T01:50:14;100047.50;;;25.41
18713;BMP280;9485;49.386;8.674;2022-07-29T01:55:40;100048.28;;;25.41
18713;BMP280;9485;49.386;8.674;2022-07-29T02:01:03;100045.56;;;25.43
18713;BMP280;9485;49.386;8.674;2022-07-29T02:06:27;100054.97;;;25.44
18713;BMP280;9485;49.386;8.674;2022-07-29T02:11:53;100037.91;;;25.48
18713;BMP280;9485;49.386;8.674;2022-07-29T02:17:23;100037.78;;;25.46
18713;BMP280;9485;49.386;8.674;2022-07-29T02:22:48;100039.00;;;25.43
18713;BMP280;9485;49.386;8.674;2022-07-29T02:28:10;100034.59;;;25.42
18713;BMP280;9485;49.386;8.674;2022-07-29T02:33:32;100038.25;;;25.42
18713;BMP280;9485;49.386;8.674;2022-07-29T02:38:56;100045.97;;;25.40
18713;BMP280;9485;49.386;8.674;2022-07-29T02:44:24;100057.25;;;25.36
18713;BMP280;9485;49.386;8.674;2022-07-29T02:49:55;100055.09;;;25.27
18713;BMP280;9485;49.386;8.674;2022-07-29T02:55:26;100058.16;;;25.19
18713;BMP280;9485;49.386;8.674;2022-07-29T03:00:51;100075.63;;;25.12
18713;BMP280;9485;49.386;8.674;2022-07-29T03:06:14;100071.06;;;25.09
18713;BMP280;9485;49.386;8.674;2022-07-29T03:11:37;100076.47;;;25.05
18713;BMP280;9485;49.386;8.674;2022-07-29T03:16:59;100062.34;;;25.00
18713;BMP280;9485;49.386;8.674;2022-07-29T03:22:19;100065.38;;;24.92
18713;BMP280;9485;49.386;8.674;2022-07-29T03:27:42;100068.25;;;24.92
18713;BMP280;9485;49.386;8.674;2022-07-29T03:33:03;100068.22;;;24.83
18713;BMP280;9485;49.386;8.674;2022-07-29T03:38:27;100065.00;;;24.69
18713;BMP280;9485;49.386;8.674;2022-07-29T03:43:53;100068.16;;;24.54
18713;BMP280;9485;49.386;8.674;2022-07-29T03:49:16;100064.88;;;24.41
18713;BMP280;9485;49.386;8.674;2022-07-29T03:54:37;100065.69;;;24.24
18713;BMP280;9485;49.386;8.674;2022-07-29T04:00:02;100059.72;;;24.13
18713;BMP280;9485;49.386;8.674;2022-07-29T04:05:23;100070.59;;;24.05
18713;BMP280;9485;49.386;8.674;2022-07-29T04:10:43;100067.03;;;23.97
18713;BMP280;9485;49.386;8.674;2022-07-29T04:16:05;100066.84;;;23.86
18713;BMP280;9485;49.386;8.674;2022-07-29T04:21:26;100070.41;;;23.77
18713;BMP280;9485;49.386;8.674;2022-07-29T04:26:47;100068.19;;;23.68
18713;BMP280;9485;49.386;8.674;2022-07-29T04:32:09;100083.47;;;23.61
18713;BMP280;9485;49.386;8.674;2022-07-29T04:37:29;100087.44;;;23.48
18713;BMP280;9485;49.386;8.674;2022-07-29T04:42:50;100084.66;;;23.41
18713;BMP280;9485;49.386;8.674;2022-07-29T04:48:12;100088.22;;;23.32
18713;BMP280;9485;49.386;8.674;2022-07-29T04:53:33;100083.28;;;23.25
18713;BMP280;9485;49.386;8.674;2022-07-29T04:58:54;100087.00;;;23.18
18713;BMP280;9485;49.386;8.674;2022-07-29T05:04:15;100089.38;;;23.12
18713;BMP280;9485;49.386;8.674;2022-07-29T05:09:36;100094.53;;;23.14
18713;BMP280;9485;49.386;8.674;2022-07-29T05:14:57;100097.38;;;23.21
18713;BMP280;9485;49.386;8.674;2022-07-29T05:20:19;100095.19;;;23.29
18713;BMP280;9485;49.386;8.674;2022-07-29T05:25:44;100099.66;;;23.40
18713;BMP280;9485;49.386;8.674;2022-07-29T05:31:05;100099.56;;;23.47
18713;BMP280;9485;49.386;8.674;2022-07-29T05:36:27;100103.63;;;23.61
18713;BMP280;9485;49.386;8.674;2022-07-29T05:41:48;100103.66;;;23.78
18713;BMP280;9485;49.386;8.674;2022-07-29T05:47:08;100100.16;;;23.96
18713;BMP280;9485;49.386;8.674;2022-07-29T05:52:31;100100.72;;;24.12
18713;BMP280;9485;49.386;8.674;2022-07-29T05:57:52;100107.34;;;24.31
18713;BMP280;9485;49.386;8.674;2022-07-29T06:03:12;100121.47;;;24.53
18713;BMP280;9485;49.386;8.674;2022-07-29T06:08:35;100133.91;;;24.82
18713;BMP280;9485;49.386;8.674;2022-07-29T06:13:56;100134.25;;;25.05
18713;BMP280;9485;49.386;8.674;2022-07-29T06:19:17;100136.94;;;25.29
18713;BMP280;9485;49.386;8.674;2022-07-29T06:24:39;100136.09;;;25.55
18713;BMP280;9485;49.386;8.674;2022-07-29T06:30:05;100138.81;;;25.72
18713;BMP280;9485;49.386;8.674;2022-07-29T06:35:26;100147.66;;;25.93
18713;BMP280;9485;49.386;8.674;2022-07-29T06:40:48;100148.41;;;26.22
18713;BMP280;9485;49.386;8.674;2022-07-29T06:46:22;100149.75;;;26.49
18713;BMP280;9485;49.386;8.674;2022-07-29T06:51:42;100162.78;;;26.69
18713;BMP280;9485;49.386;8.674;2022-07-29T06:57:04;100162.78;;;26.69
18713;BMP280;9485;49.386;8.674;2022-07-29T07:02:25;100160.63;;;26.79
18713;BMP280;9485;49.386;8.674;2022-07-29T07:07:47;100163.59;;;26.90
18713;BMP280;9485;49.386;8.674;2022-07-29T07:13:09;100173.63;;;27.08
18713;BMP280;9485;49.386;8.674;2022-07-29T07:18:30;100177.47;;;27.32
18713;BMP280;9485;49.386;8.674;2022-07-29T07:23:50;100178.44;;;27.76
18713;BMP280;9485;49.386;8.674;2022-07-29T07:29:12;100178.72;;;28.12
18713;BMP280;9485;49.386;8.674;2022-07-29T07:34:33;100192.53;;;28.44
18713;BMP280;9485;49.386;8.674;2022-07-29T07:39:54;100191.31;;;28.26
18713;BMP280;9485;49.386;8.674;2022-07-29T07:45:16;100189.66;;;28.23
18713;BMP280;9485;49.386;8.674;2022-07-29T07:50:37;100181.13;;;28.36
18713;BMP280;9485;49.386;8.674;2022-07-29T07:55:57;100180.44;;;28.59
18713;BMP280;9485;49.386;8.674;2022-07-29T08:01:19;100188.50;;;29.04
18713;BMP280;9485;49.386;8.674;2022-07-29T08:06:42;100194.22;;;29.36
18713;BMP280;9485;49.386;8.674;2022-07-29T08:12:04;100195.13;;;29.86
18713;BMP280;9485;49.386;8.674;2022-07-29T08:17:26;100191.59;;;30.99
18713;BMP280;9485;49.386;8.674;2022-07-29T08:22:47;100192.50;;;31.95
18713;BMP280;9485;49.386;8.674;2022-07-29T08:28:08;100202.03;;;33.26
18713;BMP280;9485;49.386;8.674;2022-07-29T08:33:30;100205.25;;;33.96
18713;BMP280;9485;49.386;8.674;2022-07-29T08:38:50;100203.59;;;33.75
18713;BMP280;9485;49.386;8.674;2022-07-29T08:44:11;100207.88;;;33.11
18713;BMP280;9485;49.386;8.674;2022-07-29T08:49:35;100209.09;;;32.62
18713;BMP280;9485;49.386;8.674;2022-07-29T08:54:56;100208.06;;;33.15
18713;BMP280;9485;49.386;8.674;2022-07-29T09:00:18;100208.34;;;34.50
18713;BMP280;9485;49.386;8.674;2022-07-29T09:05:42;100197.91;;;35.17
18713;BMP280;9485;49.386;8.674;2022-07-29T09:11:03;100199.34;;;35.35
18713;BMP280;9485;49.386;8.674;2022-07-29T09:16:23;100202.19;;;35.33
18713;BMP280;9485;49.386;8.674;2022-07-29T09:21:45;100196.41;;;34.98
18713;BMP280;9485;49.386;8.674;2022-07-29T09:27:22;100191.94;;;34.60
18713;BMP280;9485;49.386;8.674;2022-07-29T09:32:56;100199.63;;;34.17
18713;BMP280;9485;49.386;8.674;2022-07-29T09:38:18;100196.53;;;33.98
18713;BMP280;9485;49.386;8.674;2022-07-29T09:43:39;100194.28;;;33.96
18713;BMP280;9485;49.386;8.674;2022-07-29T09:49:10;100199.84;;;33.90
18713;BMP280;9485;49.386;8.674;2022-07-29T09:54:32;100194.63;;;34.04
18713;BMP280;9485;49.386;8.674;2022-07-29T09:59:58;100185.06;;;34.71
18713;BMP280;9485;49.386;8.674;2022-07-29T10:05:22;100201.41;;;35.69
18713;BMP280;9485;49.386;8.674;2022-07-29T10:10:44;100204.91;;;36.45
18713;BMP280;9485;49.386;8.674;2022-07-29T10:16:05;100201.13;;;37.09
18713;BMP280;9485;49.386;8.674;2022-07-29T10:21:26;100197.00;;;37.41
18713;BMP280;9485;49.386;8.674;2022-07-29T10:26:48;100201.25;;;37.85
18713;BMP280;9485;49.386;8.674;2022-07-29T10:38:29;100187.38;;;38.44
18713;BMP280;9485;49.386;8.674;2022-07-29T10:43:59;100185.66;;;38.94
18713;BMP280;9485;49.386;8.674;2022-07-29T10:49:21;100185.13;;;39.34
18713;BMP280;9485;49.386;8.674;2022-07-29T10:54:47;100172.50;;;39.65
18713;BMP280;9485;49.386;8.674;2022-07-29T11:00:31;100174.38;;;39.86
18713;BMP280;9485;49.386;8.674;2022-07-29T11:05:55;100179.22;;;40.05
18713;BMP280;9485;49.386;8.674;2022-07-29T11:11:36;100172.06;;;40.18
18713;BMP280;9485;49.386;8.674;2022-07-29T11:17:04;100154.78;;;40.04
18713;BMP280;9485;49.386;8.674;2022-07-29T11:22:33;100159.88;;;40.00
18713;BMP280;9485;49.386;8.674;2022-07-29T11:28:08;100155.38;;;39.95
18713;BMP280;9485;49.386;8.674;2022-07-29T11:33:33;100153.41;;;39.70
18713;BMP280;9485;49.386;8.674;2022-07-29T11:39:25;100138.78;;;39.78
18713;BMP280;9485;49.386;8.674;2022-07-29T11:44:57;100142.81;;;39.97
18713;BMP280;9485;49.386;8.674;2022-07-29T11:50:31;100148.53;;;40.28
18713;BMP280;9485;49.386;8.674;2022-07-29T11:55:55;100139.47;;;40.57
18713;BMP280;9485;49.386;8.674;2022-07-29T12:01:17;100134.78;;;40.42
18713;BMP280;9485;49.386;8.674;2022-07-29T12:06:40;100132.97;;;40.23
18713;BMP280;9485;49.386;8.674;2022-07-29T12:12:01;100134.00;;;40.42
18713;BMP280;9485;49.386;8.674;2022-07-29T12:17:27;100122.09;;;40.36
18713;BMP280;9485;49.386;8.674;2022-07-29T12:22:49;100131.81;;;40.42
18713;BMP280;9485;49.386;8.674;2022-07-29T12:28:12;100128.09;;;40.42
18713;BMP280;9485;49.386;8.674;2022-07-29T12:33:33;100134.69;;;40.36
18713;BMP280;9485;49.386;8.674;2022-07-29T12:38:55;100128.09;;;40.40
18713;BMP280;9485;49.386;8.674;2022-07-29T12:44:16;100130.38;;;40.45
18713;BMP280;9485;49.386;8.674;2022-07-29T12:49:37;100127.31;;;40.39
18713;BMP280;9485;49.386;8.674;2022-07-29T12:54:59;100108.75;;;40.33
18713;BMP280;9485;49.386;8.674;2022-07-29T13:00:23;100115.91;;;40.20
18713;BMP280;9485;49.386;8.674;2022-07-29T13:05:45;100113.03;;;39.47
18713;BMP280;9485;49.386;8.674;2022-07-29T13:11:07;100107.50;;;38.65
18713;BMP280;9485;49.386;8.674;2022-07-29T13:16:28;100106.06;;;38.66
18713;BMP280;9485;49.386;8.674;2022-07-29T13:21:49;100104.41;;;39.59
18713;BMP280;9485;49.386;8.674;2022-07-29T13:27:11;100120.50;;;39.17
18713;BMP280;9485;49.386;8.674;2022-07-29T13:32:32;100120.47;;;38.23
18713;BMP280;9485;49.386;8.674;2022-07-29T13:37:53;100115.81;;;37.34
18713;BMP280;9485;49.386;8.674;2022-07-29T13:43:15;100121.09;;;36.68
18713;BMP280;9485;49.386;8.674;2022-07-29T13:48:36;100123.44;;;36.07
18713;BMP280;9485;49.386;8.674;2022-07-29T13:53:56;100123.41;;;35.64
18713;BMP280;9485;49.386;8.674;2022-07-29T13:59:19;100110.97;;;35.27
18713;BMP280;9485;49.386;8.674;2022-07-29T14:04:39;100102.84;;;35.06
18713;BMP280;9485;49.386;8.674;2022-07-29T14:10:00;100097.09;;;34.91
18713;BMP280;9485;49.386;8.674;2022-07-29T14:15:22;100099.03;;;34.84
18713;BMP280;9485;49.386;8.674;2022-07-29T14:20:43;100091.16;;;34.89
18713;BMP280;9485;49.386;8.674;2022-07-29T14:26:03;100092.88;;;34.96
18713;BMP280;9485;49.386;8.674;2022-07-29T14:31:25;100093.78;;;35.00
18713;BMP280;9485;49.386;8.674;2022-07-29T14:36:46;100101.97;;;34.84
18713;BMP280;9485;49.386;8.674;2022-07-29T14:42:06;100094.59;;;34.64
18713;BMP280;9485;49.386;8.674;2022-07-29T14:47:28;100086.53;;;34.47
18713;BMP280;9485;49.386;8.674;2022-07-29T14:52:49;100098.53;;;34.36
18713;BMP280;9485;49.386;8.674;2022-07-29T14:58:09;100102.59;;;34.09
18713;BMP280;9485;49.386;8.674;2022-07-29T15:03:31;100104.16;;;34.12
18713;BMP280;9485;49.386;8.674;2022-07-29T15:08:52;100103.81;;;34.22
18713;BMP280;9485;49.386;8.674;2022-07-29T15:14:13;100107.44;;;34.20
18713;BMP280;9485;49.386;8.674;2022-07-29T15:19:35;100105.84;;;34.17
18713;BMP280;9485;49.386;8.674;2022-07-29T15:24:55;100097.72;;;34.16
18713;BMP280;9485;49.386;8.674;2022-07-29T15:30:16;100101.19;;;33.77
18713;BMP280;9485;49.386;8.674;2022-07-29T15:35:38;100102.47;;;32.78
18713;BMP280;9485;49.386;8.674;2022-07-29T15:40:58;100096.75;;;32.51
18713;BMP280;9485;49.386;8.674;2022-07-29T15:46:20;100089.03;;;32.42
18713;BMP280;9485;49.386;8.674;2022-07-29T15:52:01;100086.84;;;32.43
18713;BMP280;9485;49.386;8.674;2022-07-29T15:57:24;100084.22;;;32.49
18713;BMP280;9485;49.386;8.674;2022-07-29T16:02:44;100084.16;;;32.62
18713;BMP280;9485;49.386;8.674;2022-07-29T16:08:07;100072.66;;;32.66
18713;BMP280;9485;49.386;8.674;2022-07-29T16:13:28;100074.16;;;32.67
18713;BMP280;9485;49.386;8.674;2022-07-29T16:18:48;100074.56;;;32.60
18713;BMP280;9485;49.386;8.674;2022-07-29T16:24:10;100061.38;;;32.45
18713;BMP280;9485;49.386;8.674;2022-07-29T16:29:30;100074.88;;;32.37
18713;BMP280;9485;49.386;8.674;2022-07-29T16:34:51;100078.72;;;32.26
18713;BMP280;9485;49.386;8.674;2022-07-29T16:40:13;100076.81;;;32.17
18713;BMP280;9485;49.386;8.674;2022-07-29T16:45:34;100075.13;;;32.12
18713;BMP280;9485;49.386;8.674;2022-07-29T16:50:55;100079.44;;;32.11
18713;BMP280;9485;49.386;8.674;2022-07-29T16:56:16;100071.75;;;32.04
18713;BMP280;9485;49.386;8.674;2022-07-29T17:01:37;100069.72;;;32.07
18713;BMP280;9485;49.386;8.674;2022-07-29T17:06:58;100067.00;;;32.10
18713;BMP280;9485;49.386;8.674;2022-07-29T17:12:20;100067.09;;;32.12
18713;BMP280;9485;49.386;8.674;2022-07-29T17:17:40;100073.22;;;32.18
18713;BMP280;9485;49.386;8.674;2022-07-29T17:23:01;100067.97;;;32.30
18713;BMP280;9485;49.386;8.674;2022-07-29T17:28:23;100075.72;;;32.39
18713;BMP280;9485;49.386;8.674;2022-07-29T17:33:43;100085.81;;;32.52
18713;BMP280;9485;49.386;8.674;2022-07-29T17:39:06;100094.25;;;32.59
18713;BMP280;9485;49.386;8.674;2022-07-29T17:44:28;100100.22;;;32.48
18713;BMP280;9485;49.386;8.674;2022-07-29T17:49:49;100090.97;;;32.22
18713;BMP280;9485;49.386;8.674;2022-07-29T17:55:09;100107.75;;;31.80
18713;BMP280;9485;49.386;8.674;2022-07-29T18:00:34;100101.75;;;31.35
18713;BMP280;9485;49.386;8.674;2022-07-29T18:05:54;100111.56;;;31.02
18713;BMP280;9485;49.386;8.674;2022-07-29T18:11:15;100120.38;;;30.77
18713;BMP280;9485;49.386;8.674;2022-07-29T18:16:37;100128.75;;;30.57
18713;BMP280;9485;49.386;8.674;2022-07-29T18:21:57;100135.16;;;30.43
18713;BMP280;9485;49.386;8.674;2022-07-29T18:27:18;100143.84;;;30.29
18713;BMP280;9485;49.386;8.674;2022-07-29T18:32:40;100148.84;;;30.15
18713;BMP280;9485;49.386;8.674;2022-07-29T18:38:00;100144.69;;;30.07
18713;BMP280;9485;49.386;8.674;2022-07-29T18:43:21;100159.06;;;29.91
18713;BMP280;9485;49.386;8.674;2022-07-29T18:48:43;100154.41;;;29.75
18713;BMP280;9485;49.386;8.674;2022-07-29T18:54:04;100154.84;;;29.58
18713;BMP280;9485;49.386;8.674;2022-07-29T18:59:24;100157.91;;;29.37
18713;BMP280;9485;49.386;8.674;2022-07-29T19:04:47;100156.38;;;29.13
18713;BMP280;9485;49.386;8.674;2022-07-29T19:10:09;100161.81;;;28.85
18713;BMP280;9485;49.386;8.674;2022-07-29T19:15:30;100165.63;;;28.55
18713;BMP280;9485;49.386;8.674;2022-07-29T19:20:52;100189.56;;;28.32
18713;BMP280;9485;49.386;8.674;2022-07-29T19:26:13;100189.72;;;28.13
18713;BMP280;9485;49.386;8.674;2022-07-29T19:31:33;100197.50;;;28.00
18713;BMP280;9485;49.386;8.674;2022-07-29T19:36:55;100191.78;;;27.90
18713;BMP280;9485;49.386;8.674;2022-07-29T19:42:15;100188.03;;;27.78
18713;BMP280;9485;49.386;8.674;2022-07-29T19:47:36;100211.44;;;27.71
18713;BMP280;9485;49.386;8.674;2022-07-29T19:52:59;100209.78;;;27.68
18713;BMP280;9485;49.386;8.674;2022-07-29T19:58:20;100221.25;;;27.66
18713;BMP280;9485;49.386;8.674;2022-07-29T20:03:40;100230.56;;;27.64
18713;BMP280;9485;49.386;8.674;2022-07-29T20:09:04;100228.94;;;27.61
18713;BMP280;9485;49.386;8.674;2022-07-29T20:14:25;100233.50;;;27.55
18713;BMP280;9485;49.386;8.674;2022-07-29T20:19:46;100265.13;;;27.51
18713;BMP280;9485;49.386;8.674;2022-07-29T20:25:08;100275.09;;;27.38
18713;BMP280;9485;49.386;8.674;2022-07-29T20:30:30;100278.81;;;27.30
18713;BMP280;9485;49.386;8.674;2022-07-29T20:35:50;100286.59;;;27.27
18713;BMP280;9485;49.386;8.674;2022-07-29T20:41:13;100280.53;;;27.23
18713;BMP280;9485;49.386;8.674;2022-07-29T20:46:33;100290.91;;;27.17
18713;BMP280;9485;49.386;8.674;2022-07-29T20:51:54;100313.38;;;27.07
18713;BMP280;9485;49.386;8.674;2022-07-29T20:57:16;100327.38;;;26.91
18713;BMP280;9485;49.386;8.674;2022-07-29T21:02:37;100339.16;;;26.84
18713;BMP280;9485;49.386;8.674;2022-07-29T21:07:58;100335.50;;;26.74
18713;BMP280;9485;49.386;8.674;2022-07-29T21:13:20;100338.56;;;26.57
18713;BMP280;9485;49.386;8.674;2022-07-29T21:18:45;100327.56;;;26.27
18713;BMP280;9485;49.386;8.674;2022-07-29T21:24:07;100335.91;;;26.14
18713;BMP280;9485;49.386;8.674;2022-07-29T21:29:28;100326.00;;;25.98
18713;BMP280;9485;49.386;8.674;2022-07-29T21:34:49;100326.72;;;25.80
18713;BMP280;9485;49.386;8.674;2022-07-29T21:40:11;100319.91;;;25.58
18713;BMP280;9485;49.386;8.674;2022-07-29T21:45:34;100327.97;;;25.50
18713;BMP280;9485;49.386;8.674;2022-07-29T21:50:55;100336.84;;;25.35
18713;BMP280;9485;49.386;8.674;2022-07-29T21:56:16;100341.94;;;25.18
18713;BMP280;9485;49.386;8.674;2022-07-29T22:01:38;100351.38;;;25.01
18713;BMP280;9485;49.386;8.674;2022-07-29T22:06:58;100353.53;;;24.84
18713;BMP280;9485;49.386;8.674;2022-07-29T22:12:19;100348.53;;;24.68
18713;BMP280;9485;49.386;8.674;2022-07-29T22:17:41;100359.53;;;24.52
18713;BMP280;9485;49.386;8.674;2022-07-29T22:23:02;100359.66;;;24.37
18713;BMP280;9485;49.386;8.674;2022-07-29T22:28:23;100362.56;;;24.21
18713;BMP280;9485;49.386;8.674;2022-07-29T22:33:45;100370.56;;;24.05
18713;BMP280;9485;49.386;8.674;2022-07-29T22:39:06;100387.59;;;23.94
18713;BMP280;9485;49.386;8.674;2022-07-29T22:44:26;100381.38;;;23.80
18713;BMP280;9485;49.386;8.674;2022-07-29T22:49:48;100376.44;;;23.73
18713;BMP280;9485;49.386;8.674;2022-07-29T22:55:09;100385.09;;;23.66
18713;BMP280;9485;49.386;8.674;2022-07-29T23:00:30;100391.47;;;23.64
18713;BMP280;9485;49.386;8.674;2022-07-29T23:05:52;100392.28;;;23.57
18713;BMP280;9485;49.386;8.674;2022-07-29T23:11:13;100386.06;;;23.44
18713;BMP280;9485;49.386;8.674;2022-07-29T23:16:33;100390.91;;;23.34
18713;BMP280;9485;49.386;8.674;2022-07-29T23:21:56;100385.63;;;23.23
18713;BMP280;9485;49.386;8.674;2022-07-29T23:27:16;100392.22;;;23.09
18713;BMP280;9485;49.386;8.674;2022-07-29T23:32:37;100392.22;;;23.01
18713;BMP280;9485;49.386;8.674;2022-07-29T23:37:59;100410.72;;;22.91
18713;BMP280;9485;49.386;8.674;2022-07-29T23:43:20;100415.72;;;22.83
18713;BMP280;9485;49.386;8.674;2022-07-29T23:48:41;100412.47;;;22.79
18713;BMP280;9485;49.386;8.674;2022-07-29T23:54:02;100411.50;;;22.76
18713;BMP280;9485;49.386;8.674;2022-07-29T23:59:23;100406.56;;;22.69
